Time;durP1;ratioP1;P1;durP2;ratioP2;P2;SDS_P1;SDS_P2;PMS_P1;PMS_P2;Temp;Humidity;BMP_temperature;BMP_pressure;BME280_temperature;BME280_humidity;BME280_pressure;Samples;Min_cycle;Max_cycle;Signal;HPM_P1;HPM_P2
2021/01/21 00:00:54;;;;;;;60.98;28.55;;;;;;;3.13;69.41;99248.75;2214753;80;31254;-68
2021/01/21 00:03:56;;;;;;;56.85;27.00;;;;;;;3.01;69.53;99256.22;2217399;80;33168;-68
2021/01/21 00:06:58;;;;;;;57.48;27.25;;;;;;;2.96;69.62;99255.51;2195476;80;28924;-68
2021/01/21 00:10:00;;;;;;;52.98;24.50;;;;;;;2.88;69.66;99258.42;2180520;80;27698;-68
2021/01/21 00:13:02;;;;;;;53.15;25.88;;;;;;;2.82;69.78;99251.16;2215340;80;28904;-67
2021/01/21 00:16:05;;;;;;;49.13;25.90;;;;;;;2.71;69.84;99257.70;2188238;80;32161;-67
2021/01/21 00:22:18;;;;;;;44.25;23.38;;;;;;;2.57;70.13;99237.00;2063993;81;27723;-66
2021/01/21 00:25:20;;;;;;;56.35;25.40;;;;;;;2.51;70.21;99235.88;2046624;86;27667;-68
2021/01/21 00:28:22;;;;;;;55.88;24.87;;;;;;;2.49;70.25;99231.57;2033412;87;29382;-67
2021/01/21 00:31:25;;;;;;;52.62;24.75;;;;;;;2.43;70.24;99226.89;2033410;87;31165;-69
2021/01/21 00:34:27;;;;;;;57.13;26.25;;;;;;;2.39;70.43;99229.69;2033319;87;33129;-69
2021/01/21 00:37:29;;;;;;;57.75;28.55;;;;;;;2.34;70.60;99232.50;2061075;85;28948;-69
2021/01/21 00:40:31;;;;;;;64.58;30.37;;;;;;;2.31;70.59;99232.59;2041532;85;27680;-69
2021/01/21 00:43:33;;;;;;;69.05;31.73;;;;;;;2.27;70.61;99225.23;2002317;87;28835;-68
2021/01/21 00:46:36;;;;;;;65.62;33.45;;;;;;;2.26;70.67;99227.91;2062402;85;31174;-68
2021/01/21 00:49:38;;;;;;;70.25;32.00;;;;;;;2.23;70.62;99224.06;2073492;85;33202;-68
2021/01/21 00:52:40;;;;;;;75.17;33.65;;;;;;;2.18;70.69;99234.77;2050152;85;29135;-67
2021/01/21 00:55:42;;;;;;;66.15;31.02;;;;;;;2.15;70.70;99237.53;2033121;87;27738;-68
2021/01/21 00:58:44;;;;;;;64.77;28.83;;;;;;;2.10;70.72;99228.88;2032915;87;28832;-67
2021/01/21 01:01:46;;;;;;;62.95;30.30;;;;;;;2.01;70.79;99219.91;2039382;85;30430;-68
2021/01/21 01:04:48;;;;;;;50.48;25.85;;;;;;;1.94;70.88;99222.77;2046372;85;33131;-69
2021/01/21 01:07:50;;;;;;;57.17;26.42;;;;;;;1.90;71.07;99219.81;2032934;87;29957;-68
2021/01/21 01:10:52;;;;;;;53.23;25.95;;;;;;;1.87;71.13;99214.62;2031886;87;27739;-68
2021/01/21 01:13:55;;;;;;;51.95;25.15;;;;;;;1.85;71.18;99221.72;2033325;87;29803;-68
2021/01/21 01:16:57;;;;;;;58.60;27.25;;;;;;;1.86;71.23;99216.00;2033335;87;32139;-68
2021/01/21 01:19:59;;;;;;;56.15;26.70;;;;;;;1.84;71.23;99216.50;2033581;85;33077;-69
2021/01/21 01:23:01;;;;;;;54.80;26.37;;;;;;;1.82;71.31;99218.73;2048292;86;28872;-69
2021/01/21 01:26:03;;;;;;;53.17;25.65;;;;;;;1.82;71.35;99208.64;2051781;86;28174;-69
2021/01/21 01:29:06;;;;;;;56.28;28.62;;;;;;;1.81;71.26;99201.16;2051905;86;28835;-68
2021/01/21 01:32:08;;;;;;;53.73;26.55;;;;;;;1.78;71.20;99199.08;2051523;86;31178;-67
2021/01/21 01:35:10;;;;;;;74.37;34.00;;;;;;;1.76;71.07;99199.58;2053183;86;33208;-66
2021/01/21 01:38:13;;;;;;;81.57;36.33;;;;;;;1.70;70.93;99200.64;2081505;85;28872;-67
2021/01/21 01:41:15;;;;;;;144.05;61.55;;;;;;;1.62;70.88;99200.87;2052902;85;27735;-67
2021/01/21 01:44:18;;;;;;;150.72;64.60;;;;;;;1.55;71.06;99201.96;2053367;86;29791;-67
2021/01/21 01:47:20;;;;;;;71.20;35.08;;;;;;;1.45;71.28;99208.44;2074137;85;31153;-67
2021/01/21 01:50:24;;;;;;;68.15;35.52;;;;;;;1.34;71.32;99196.41;2053026;86;33189;-67
2021/01/21 01:53:33;;;;;;;79.15;36.90;;;;;;;1.28;71.40;99197.93;2053334;86;29212;-67
2021/01/21 01:56:38;;;;;;;95.00;43.98;;;;;;;1.25;71.42;99192.74;2053739;85;27855;-67
2021/01/21 01:59:40;;;;;;;;;;;;;;;1.21;71.33;99186.70;2055770;86;28842;-67
2021/01/21 02:02:42;;;;;;;86.55;43.30;;;;;;;1.14;71.46;99185.14;2049598;85;31149;-67
2021/01/21 02:05:44;;;;;;;83.65;40.52;;;;;;;1.09;71.55;99179.59;2071043;85;33964;-67
2021/01/21 02:08:46;;;;;;;174.82;74.90;;;;;;;1.03;71.65;99184.13;2059546;83;29244;-68
2021/01/21 02:12:24;;;;;;;127.00;56.42;;;;;;;0.99;71.68;99185.14;2053253;85;27728;-68
2021/01/21 02:15:53;;;;;;;115.65;52.23;;;;;;;0.95;71.64;99187.45;2052731;85;29870;-68
2021/01/21 02:19:09;;;;;;;117.42;52.30;;;;;;;0.89;71.66;99195.52;2053427;86;32050;-69
2021/01/21 02:22:28;;;;;;;96.90;47.20;;;;;;;0.84;71.59;99189.50;2052810;86;33623;-69
2021/01/21 02:25:47;;;;;;;120.10;55.43;;;;;;;0.80;71.88;99196.64;2053293;86;29106;-66
2021/01/21 02:29:09;;;;;;;118.05;53.63;;;;;;;0.79;71.90;99191.42;2053843;86;27620;-68
2021/01/21 02:32:35;;;;;;;88.27;42.67;;;;;;;0.78;72.11;99197.12;2053729;85;28825;-68
2021/01/21 02:35:37;;;;;;;86.87;43.58;;;;;;;0.78;72.24;99191.01;2073934;85;31143;-69
2021/01/21 02:38:40;;;;;;;66.47;34.03;;;;;;;0.78;72.33;99187.05;2074390;85;34005;-68
2021/01/21 02:41:42;;;;;;;60.17;31.95;;;;;;;0.80;72.51;99181.29;2073803;85;30159;-68
2021/01/21 02:44:44;;;;;;;61.90;28.67;;;;;;;0.82;72.63;99184.75;2074623;85;27709;-69
2021/01/21 02:47:46;;;;;;;59.98;29.95;;;;;;;0.85;72.63;99182.89;2074575;85;28902;-68
2021/01/21 02:50:52;;;;;;;64.87;31.97;;;;;;;0.92;72.66;99179.63;2073345;84;32057;-68
2021/01/21 02:54:31;;;;;;;57.25;30.77;;;;;;;0.98;72.77;99178.58;2074742;85;33104;-68
2021/01/21 02:58:03;;;;;;;49.42;26.95;;;;;;;1.03;72.75;99184.59;2090794;84;29572;-67
2021/01/21 03:01:05;;;;;;;52.50;27.82;;;;;;;1.10;72.90;99183.95;2068744;84;28546;-67
2021/01/21 03:04:07;;;;;;;54.65;29.60;;;;;;;1.15;73.02;99183.38;2053031;85;28955;-68
2021/01/21 03:07:11;;;;;;;56.35;30.77;;;;;;;1.19;72.99;99184.56;2023598;86;31153;-68
2021/01/21 03:10:19;;;;;;;63.45;33.33;;;;;;;1.24;73.04;99176.97;2052855;85;33304;-68
2021/01/21 03:13:21;;;;;;;55.10;31.68;;;;;;;1.28;73.03;99179.47;2052750;86;30595;-66
2021/01/21 03:16:23;;;;;;;57.88;31.25;;;;;;;1.32;73.07;99173.20;2053397;86;27693;-69
2021/01/21 03:19:25;;;;;;;50.75;29.05;;;;;;;1.41;73.12;99179.09;2053285;86;28853;-68
2021/01/21 03:22:27;;;;;;;53.98;30.20;;;;;;;1.48;73.36;99174.05;2044436;84;31149;-68
2021/01/21 03:25:29;;;;;;;56.33;32.78;;;;;;;1.55;73.33;99175.56;2032124;87;33340;-68
2021/01/21 03:28:31;;;;;;;55.58;30.17;;;;;;;1.64;73.44;99173.98;2032255;87;29155;-68
2021/01/21 03:31:33;;;;;;;44.03;26.17;;;;;;;1.73;73.48;99178.55;2047324;86;27725;-69
2021/01/21 03:34:35;;;;;;;38.02;23.42;;;;;;;1.80;73.59;99180.09;2032371;87;28917;-69
2021/01/21 03:37:37;;;;;;;39.50;24.60;;;;;;;1.87;73.54;99171.52;2095659;83;31109;-69
2021/01/21 03:40:39;;;;;;;34.63;20.72;;;;;;;1.95;73.51;99176.08;2096736;83;33127;-66
2021/01/21 03:43:40;;;;;;;36.05;21.12;;;;;;;2.01;73.48;99177.65;2096269;84;29235;-69
2021/01/21 03:46:43;;;;;;;33.70;19.10;;;;;;;2.05;73.56;99176.20;2096004;84;27688;-69
2021/01/21 03:49:45;;;;;;;28.23;17.32;;;;;;;2.11;73.54;99183.91;2098498;83;29979;-70
2021/01/21 03:52:46;;;;;;;31.60;18.40;;;;;;;2.19;73.53;99181.48;2098425;84;32060;-69
2021/01/21 03:55:48;;;;;;;28.17;15.65;;;;;;;2.27;73.48;99184.71;2098783;83;33124;-66
2021/01/21 03:58:50;;;;;;;38.17;20.77;;;;;;;2.36;73.48;99177.81;2098433;83;30112;-69
2021/01/21 04:01:52;;;;;;;27.17;15.90;;;;;;;2.46;73.41;99189.38;2105688;83;27696;-67
2021/01/21 04:04:54;;;;;;;24.05;14.83;;;;;;;2.54;73.33;99184.23;2106705;83;28866;-68
2021/01/21 04:07:56;;;;;;;25.25;15.03;;;;;;;2.63;73.22;99180.88;2110448;83;32093;-69
2021/01/21 04:10:58;;;;;;;29.77;16.52;;;;;;;2.72;73.14;99185.83;2121691;83;33110;-69
2021/01/21 04:14:00;;;;;;;32.00;16.50;;;;;;;2.78;73.02;99179.01;2105625;83;29414;-68
2021/01/21 04:17:01;;;;;;;78.02;36.50;;;;;;;2.81;72.93;99176.26;2099774;83;27686;-70
2021/01/21 04:20:05;;;;;;;42.85;23.02;;;;;;;2.85;72.87;99183.14;2097244;83;28891;-69
2021/01/21 04:23:07;;;;;;;130.50;48.92;;;;;;;2.88;72.74;99184.36;2091509;84;31142;-67
2021/01/21 04:26:09;;;;;;;28.95;17.48;;;;;;;2.89;72.71;99176.83;2088828;85;33128;-69
2021/01/21 04:29:12;;;;;;;27.60;17.30;;;;;;;2.92;72.62;99173.20;2089024;83;29172;-69
2021/01/21 04:32:14;;;;;;;25.30;15.98;;;;;;;2.92;72.63;99167.91;2088796;85;27743;-68
2021/01/21 04:35:17;;;;;;;26.65;16.60;;;;;;;2.94;72.63;99169.19;2087382;85;28928;-69
2021/01/21 04:38:18;;;;;;;25.97;16.27;;;;;;;2.95;72.61;99161.19;2050590;86;32209;-69
2021/01/21 04:41:20;;;;;;;25.95;16.42;;;;;;;2.98;72.57;99162.87;2090278;84;33126;-69
2021/01/21 04:44:22;;;;;;;26.82;15.60;;;;;;;2.98;72.50;99162.87;2095970;84;29148;-68
2021/01/21 04:47:25;;;;;;;27.70;17.48;;;;;;;2.97;72.49;99156.70;2089186;85;27680;-70
2021/01/21 04:50:28;;;;;;;24.98;16.07;;;;;;;3.00;72.56;99163.66;2091790;83;28828;-69
2021/01/21 04:53:30;;;;;;;23.73;14.83;;;;;;;3.01;72.45;99166.70;2087666;85;32103;-68
2021/01/21 04:56:37;;;;;;;25.50;14.13;;;;;;;2.99;72.50;99162.81;2088545;84;33125;-69
2021/01/21 04:59:40;;;;;;;18.37;13.58;;;;;;;3.02;72.43;99170.64;2087693;85;29151;-68
2021/01/21 05:02:43;;;;;;;22.27;14.73;;;;;;;3.08;72.43;99171.30;2088730;85;27756;-69
2021/01/21 05:05:45;;;;;;;22.87;14.10;;;;;;;3.09;72.37;99173.91;2088385;83;28834;-69
2021/01/21 05:08:47;;;;;;;24.18;14.65;;;;;;;3.12;72.37;99169.84;2088751;83;30358;-69
2021/01/21 05:11:49;;;;;;;25.80;16.12;;;;;;;3.16;72.31;99177.19;2088049;85;33194;-68
2021/01/21 05:14:52;;;;;;;22.80;14.73;;;;;;;3.18;72.26;99175.36;2088433;85;29624;-69
2021/01/21 05:17:54;;;;;;;22.90;15.03;;;;;;;3.19;72.18;99164.70;2088548;85;27848;-70
2021/01/21 05:20:56;;;;;;;23.85;15.53;;;;;;;3.19;72.20;99171.79;2088615;85;29785;-69
2021/01/21 05:23:59;;;;;;;22.55;14.23;;;;;;;3.21;72.17;99177.02;2088928;83;31217;-69
2021/01/21 05:27:01;;;;;;;22.42;14.07;;;;;;;3.20;72.15;99165.58;2088786;85;33551;-68
2021/01/21 05:30:04;;;;;;;20.32;14.03;;;;;;;3.20;72.13;99160.28;2088859;85;29192;-69
2021/01/21 05:33:06;;;;;;;21.82;13.95;;;;;;;3.22;72.19;99157.56;2111141;83;27700;-69
2021/01/21 05:36:09;;;;;;;20.72;14.13;;;;;;;3.24;72.15;99151.77;2082518;83;29787;-67
2021/01/21 05:39:11;;;;;;;20.62;13.35;;;;;;;3.27;72.13;99147.67;2082500;85;32076;-68
2021/01/21 05:42:14;;;;;;;21.77;12.35;;;;;;;3.32;72.05;99150.98;2081852;85;33278;-69
2021/01/21 05:45:23;;;;;;;27.22;18.07;;;;;;;3.35;72.06;99140.29;2080462;85;29173;-68
2021/01/21 05:48:25;;;;;;;26.25;16.32;;;;;;;3.37;72.03;99130.51;2059987;85;27675;-68
2021/01/21 05:51:29;;;;;;;23.42;17.10;;;;;;;3.39;71.99;99131.79;2082002;85;28877;-69
2021/01/21 05:54:31;;;;;;;25.17;15.60;;;;;;;3.39;72.00;99135.28;2081260;85;31147;-69
2021/01/21 05:57:37;;;;;;;24.65;14.60;;;;;;;3.42;72.03;99135.61;2104219;83;34464;-69
2021/01/21 06:00:43;;;;;;;25.65;15.43;;;;;;;3.43;71.97;99139.55;2076646;83;29351;-70
2021/01/21 06:03:45;;;;;;;27.40;15.55;;;;;;;3.43;71.96;99134.25;2082281;85;27652;-70
2021/01/21 06:06:47;;;;;;;25.77;16.65;;;;;;;3.45;71.93;99133.73;2082386;85;28672;-69
2021/01/21 06:09:49;;;;;;;26.52;17.17;;;;;;;3.44;71.86;99133.77;2081906;83;31194;-69
2021/01/21 06:12:53;;;;;;;25.48;17.10;;;;;;;3.44;71.88;99130.68;2060763;85;33576;-70
2021/01/21 06:15:58;;;;;;;26.23;16.95;;;;;;;3.43;71.91;99127.63;2082363;85;29172;-70
2021/01/21 06:19:00;;;;;;;28.02;18.00;;;;;;;3.42;71.91;99123.70;2089202;85;27710;-69
2021/01/21 06:22:06;;;;;;;31.57;17.92;;;;;;;3.41;71.95;99118.88;2052336;85;28884;-69
2021/01/21 06:25:16;;;;;;;31.23;18.35;;;;;;;3.38;71.89;99117.67;2057942;85;32143;-69
2021/01/21 06:28:23;;;;;;;27.98;16.48;;;;;;;3.38;71.88;99114.18;2061998;86;34076;-69
2021/01/21 06:31:28;;;;;;;29.07;17.90;;;;;;;3.35;71.84;99108.52;2084867;85;29234;-69
2021/01/21 06:34:36;;;;;;;28.40;16.65;;;;;;;3.33;71.88;99124.92;2100008;84;27594;-69
2021/01/21 06:37:40;;;;;;;28.92;17.07;;;;;;;3.29;71.88;99129.95;2080747;85;28681;-69
2021/01/21 06:40:46;;;;;;;25.00;16.35;;;;;;;3.24;71.88;99130.59;2080707;85;32684;-68
2021/01/21 06:43:48;;;;;;;29.30;18.25;;;;;;;3.20;71.95;99127.20;2083303;85;33137;-69
2021/01/21 06:46:53;;;;;;;31.90;18.60;;;;;;;3.17;72.04;99121.55;2062094;86;30052;-69
2021/01/21 06:50:02;;;;;;;32.67;19.80;;;;;;;3.15;72.11;99126.03;2063137;86;27605;-70
2021/01/21 06:53:07;;;;;;;33.75;18.65;;;;;;;3.18;72.19;99125.92;2085317;85;29726;-69
2021/01/21 06:56:09;;;;;;;32.93;18.05;;;;;;;3.22;72.19;99129.34;2085461;85;31221;-68
2021/01/21 06:59:11;;;;;;;32.63;19.37;;;;;;;3.22;72.22;99124.05;2084353;84;33135;-69
2021/01/21 07:02:13;;;;;;;30.27;18.87;;;;;;;3.25;72.27;99129.19;2069555;85;29173;-70
2021/01/21 07:05:20;;;;;;;32.48;17.07;;;;;;;3.27;72.29;99132.64;2084986;85;27737;-69
2021/01/21 07:08:22;;;;;;;32.25;17.95;;;;;;;3.31;72.29;99134.27;2085194;85;29002;-68
2021/01/21 07:11:25;;;;;;;30.57;17.12;;;;;;;3.37;72.34;99142.89;2084938;85;31151;-69
2021/01/21 07:14:33;;;;;;;32.95;17.87;;;;;;;3.43;72.36;99136.90;2081232;84;33093;-68
2021/01/21 07:17:36;;;;;;;30.90;17.32;;;;;;;3.50;72.27;99126.92;2084576;84;29168;-66
2021/01/21 07:21:02;;;;;;;34.35;19.62;;;;;;;3.58;72.15;99129.27;2080756;85;27700;-70
2021/01/21 07:24:07;;;;;;;33.85;19.65;;;;;;;3.64;72.24;99147.58;2055314;84;28845;-70
2021/01/21 07:27:12;;;;;;;30.40;18.23;;;;;;;3.75;72.25;99149.77;2021163;84;31173;-68
2021/01/21 07:30:20;;;;;;;28.40;16.32;;;;;;;3.85;72.22;99139.66;2067067;86;33135;-68
2021/01/21 07:33:24;;;;;;;31.15;18.12;;;;;;;3.92;72.05;99124.77;2090862;85;29225;-69
2021/01/21 07:36:29;;;;;;;29.12;17.15;;;;;;;3.99;71.88;99122.73;2067598;86;28098;-69
2021/01/21 07:40:01;;;;;;;32.70;17.65;;;;;;;4.04;71.83;99128.70;2090757;85;28878;-69
2021/01/21 07:43:03;;;;;;;33.20;18.77;;;;;;;4.10;71.76;99121.84;2102132;84;31192;-70
2021/01/21 07:46:25;;;;;;;45.55;20.52;;;;;;;4.16;71.78;99124.69;2065503;86;33775;-70
2021/01/21 07:49:28;;;;;;;34.80;19.32;;;;;;;4.22;71.62;99123.55;2091870;85;29168;-69
2021/01/21 07:52:38;;;;;;;32.38;20.60;;;;;;;4.28;71.42;99140.54;2066030;86;27857;-70
2021/01/21 07:55:40;;;;;;;38.48;21.62;;;;;;;4.33;71.56;99158.42;2089775;85;28843;-69
2021/01/21 07:58:43;;;;;;;37.05;21.27;;;;;;;4.45;71.82;99168.97;2067270;86;32567;-70
2021/01/21 08:01:59;;;;;;;30.80;20.97;;;;;;;4.55;71.76;99166.79;2091525;85;33626;-70
2021/01/21 08:05:01;;;;;;;38.75;20.88;;;;;;;4.67;71.64;99165.40;2090206;85;30139;-70
2021/01/21 08:08:04;;;;;;;38.30;21.75;;;;;;;4.71;71.28;99155.91;2066365;86;27671;-68
2021/01/21 08:11:11;;;;;;;44.05;21.30;;;;;;;4.77;71.34;99148.13;2090005;85;29898;-70
2021/01/21 08:14:13;;;;;;;33.33;20.40;;;;;;;4.82;71.18;99149.25;2089677;84;32081;-69
2021/01/21 08:17:15;;;;;;;39.90;21.33;;;;;;;4.89;70.99;99153.37;2091217;84;33996;-68
2021/01/21 08:20:24;;;;;;;47.67;23.40;;;;;;;4.91;70.75;99158.14;2067353;86;29179;-71
2021/01/21 08:23:26;;;;;;;42.15;23.57;;;;;;;4.96;71.02;99161.46;2086960;83;27816;-72
2021/01/21 08:26:31;;;;;;;42.60;23.77;;;;;;;5.06;71.08;99178.28;2072593;85;28832;-71
2021/01/21 08:29:33;;;;;;;43.38;22.98;;;;;;;5.15;71.03;99183.16;2045944;86;31200;-72
2021/01/21 08:32:35;;;;;;;41.83;22.20;;;;;;;5.20;70.92;99185.16;2046018;86;33991;-69
2021/01/21 08:35:49;;;;;;;53.00;21.93;;;;;;;5.28;70.85;99196.75;2085047;85;30046;-69
2021/01/21 08:38:51;;;;;;;39.18;20.68;;;;;;;5.36;70.89;99196.40;2089705;84;27806;-69
2021/01/21 08:41:53;;;;;;;42.95;22.05;;;;;;;5.45;70.67;99186.21;2086007;83;29935;-68
2021/01/21 08:44:56;;;;;;;50.43;21.48;;;;;;;5.54;70.51;99188.91;2063534;86;32162;-68
2021/01/21 08:47:58;;;;;;;44.90;20.17;;;;;;;5.61;70.20;99170.43;2084936;85;34079;-68
2021/01/21 08:51:00;;;;;;;77.47;41.42;;;;;;;5.62;69.59;99147.36;2063625;86;29389;-68
2021/01/21 08:54:18;;;;;;;67.15;36.42;;;;;;;5.62;69.85;99151.35;2084989;84;28210;-70
2021/01/21 08:57:23;;;;;;;41.55;23.35;;;;;;;5.69;70.20;99171.84;2084957;85;28833;-68
2021/01/21 09:00:29;;;;;;;43.05;21.65;;;;;;;5.78;69.84;99168.28;2084934;84;31171;-67
2021/01/21 09:07:08;;;;;;;28.03;16.20;;;;;;;5.93;69.18;99156.50;2297214;77;29439;-67
2021/01/21 09:10:13;;;;;;;33.25;15.95;;;;;;;5.88;69.17;99139.45;2216653;80;27754;-66
2021/01/21 09:13:19;;;;;;;27.05;15.60;;;;;;;5.88;69.01;99142.12;2210089;79;28842;-67
2021/01/21 09:16:41;;;;;;;26.05;13.85;;;;;;;5.89;68.79;99155.80;2169869;81;31098;-67
2021/01/21 09:19:45;;;;;;;22.37;13.48;;;;;;;5.92;68.92;99146.35;2136060;83;33136;-68
2021/01/21 09:22:49;;;;;;;26.50;15.40;;;;;;;6.01;68.87;99139.75;2220767;78;28544;-69
2021/01/21 09:25:51;;;;;;;29.90;15.95;;;;;;;6.10;68.78;99149.08;2163824;81;27741;-69
2021/01/21 09:28:55;;;;;;;40.17;18.50;;;;;;;6.16;68.65;99139.44;2186449;80;28816;-68
2021/01/21 09:31:57;;;;;;;38.50;16.97;;;;;;;6.22;68.64;99144.46;2152962;81;31189;-68
2021/01/21 09:35:08;;;;;;;28.35;17.02;;;;;;;6.26;68.08;99138.99;2217493;80;33124;-68
2021/01/21 09:38:10;;;;;;;32.33;18.27;;;;;;;6.27;68.28;99137.57;2174064;81;28868;-68
2021/01/21 09:41:12;;;;;;;33.65;16.57;;;;;;;6.29;68.14;99127.72;2204812;80;27664;-72
2021/01/21 09:44:15;;;;;;;32.88;17.77;;;;;;;6.29;68.13;99127.72;2152703;81;29713;-68
2021/01/21 09:47:17;;;;;;;29.32;15.53;;;;;;;6.35;68.32;99141.17;2209453;80;31129;-69
2021/01/21 09:50:21;;;;;;;32.63;14.70;;;;;;;6.43;68.24;99142.98;2176916;80;32305;-68
2021/01/21 09:53:23;;;;;;;28.45;16.05;;;;;;;6.52;68.15;99138.50;2155791;80;29281;-68
2021/01/21 09:56:25;;;;;;;31.27;14.95;;;;;;;6.62;68.48;99137.56;2150792;81;27685;-68
2021/01/21 09:59:27;;;;;;;30.05;14.03;;;;;;;6.72;67.93;99135.73;2188465;80;28828;-67
2021/01/21 10:02:30;;;;;;;34.00;14.28;;;;;;;6.80;68.01;99136.20;2195504;80;32103;-66
2021/01/21 10:05:33;;;;;;;25.08;13.58;;;;;;;6.88;67.65;99130.47;2221171;79;34159;-67
2021/01/21 10:08:36;;;;;;;22.02;12.70;;;;;;;6.93;67.37;99109.80;2201749;79;28902;-67
2021/01/21 10:11:39;;;;;;;22.58;13.50;;;;;;;6.93;66.74;99102.66;2181921;81;27781;-68
2021/01/21 10:14:41;;;;;;;24.55;14.65;;;;;;;6.95;67.16;99095.45;2228527;79;28821;-67
2021/01/21 10:17:45;;;;;;;28.65;15.40;;;;;;;6.99;66.90;99117.44;2186978;81;30343;-65
2021/01/21 10:20:47;;;;;;;25.82;14.65;;;;;;;7.07;67.51;99123.67;2224351;79;33984;-66
2021/01/21 10:23:49;;;;;;;23.32;13.28;;;;;;;7.15;67.38;99114.33;2163649;81;28870;-65
2021/01/21 10:26:52;;;;;;;26.50;15.25;;;;;;;7.23;66.79;99119.23;2222483;79;27753;-66
2021/01/21 10:29:55;;;;;;;40.80;23.55;;;;;;;7.26;66.86;99111.56;2204421;78;28883;-67
2021/01/21 10:32:57;;;;;;;47.05;28.87;;;;;;;7.33;66.95;99118.73;2224317;78;31180;-65
2021/01/21 10:35:59;;;;;;;34.55;19.10;;;;;;;7.40;67.05;99119.64;2217809;79;34023;-63
2021/01/21 10:39:06;;;;;;;28.73;15.50;;;;;;;7.50;67.02;99121.78;2205542;79;31114;-64
2021/01/21 10:42:09;;;;;;;27.52;15.40;;;;;;;7.56;66.71;99112.12;2191601;79;27699;-64
2021/01/21 10:45:12;;;;;;;27.93;15.10;;;;;;;7.59;66.71;99102.14;2208884;79;28906;-68
2021/01/21 10:48:15;;;;;;;40.83;18.95;;;;;;;7.62;66.21;99106.91;2227189;79;31142;-67
2021/01/21 10:51:17;;;;;;;60.45;36.40;;;;;;;7.66;66.37;99109.30;2185844;81;34399;-66
2021/01/21 10:54:19;;;;;;;68.37;40.83;;;;;;;7.72;66.13;99106.77;2215456;78;28857;-64
2021/01/21 10:57:21;;;;;;;27.50;16.93;;;;;;;7.78;66.30;99115.75;2183764;81;27677;-64
2021/01/21 11:00:25;;;;;;;24.70;14.43;;;;;;;7.84;66.17;99112.74;2195857;78;28836;-64
2021/01/21 11:03:27;;;;;;;32.15;18.00;;;;;;;7.90;65.86;99111.03;2211778;78;31137;-67
2021/01/21 11:06:29;;;;;;;32.30;16.48;;;;;;;7.93;66.24;99114.48;2204479;79;33163;-68
2021/01/21 11:09:39;;;;;;;25.50;13.98;;;;;;;8.02;65.88;99117.47;2165476;80;29909;-67
2021/01/21 11:12:42;;;;;;;23.83;13.15;;;;;;;8.05;66.15;99105.30;2200040;80;27685;-68
2021/01/21 11:15:46;;;;;;;24.32;13.75;;;;;;;8.12;65.90;99100.91;2194605;80;28885;-65
2021/01/21 11:18:49;;;;;;;25.00;16.73;;;;;;;8.17;65.79;99088.17;2181821;80;32147;-69
2021/01/21 11:21:53;;;;;;;24.98;15.28;;;;;;;8.17;66.03;99087.72;2193064;80;33647;-70
2021/01/21 11:24:55;;;;;;;20.37;12.03;;;;;;;8.20;65.93;99086.17;2157539;80;29796;-69
2021/01/21 11:27:59;;;;;;;20.88;13.35;;;;;;;8.23;65.93;99083.81;2189357;80;27876;-68
2021/01/21 11:31:02;;;;;;;22.85;12.10;;;;;;;8.26;65.67;99076.97;2199487;80;28803;-68
2021/01/21 11:34:04;;;;;;;24.90;16.07;;;;;;;8.30;66.00;99077.14;2179767;80;31674;-70
2021/01/21 11:37:06;;;;;;;22.52;15.43;;;;;;;8.36;65.72;99077.25;2183775;80;34402;-68
2021/01/21 11:40:10;;;;;;;17.60;12.58;;;;;;;8.39;65.62;99069.55;2198366;80;29814;-70
2021/01/21 11:43:13;;;;;;;34.05;16.85;;;;;;;8.41;65.69;99064.98;2181730;80;27585;-67
2021/01/21 11:46:15;;;;;;;21.12;11.60;;;;;;;8.42;65.53;99058.20;2206239;80;28813;-70
2021/01/21 11:49:17;;;;;;;90.60;41.98;;;;;;;8.46;65.27;99050.86;2194543;80;31332;-68
2021/01/21 11:52:21;;;;;;;157.52;75.12;;;;;;;8.46;65.01;99041.06;2183797;80;33101;-67
2021/01/21 11:55:24;;;;;;;38.85;22.95;;;;;;;8.50;65.09;99040.42;2173938;80;28937;-67
2021/01/21 11:58:27;;;;;;;33.23;18.60;;;;;;;8.53;65.28;99030.89;2166774;79;27706;-69
2021/01/21 12:01:29;;;;;;;16.57;9.95;;;;;;;8.57;64.94;99019.55;2196405;80;28818;-66
2021/01/21 12:04:32;;;;;;;19.82;10.93;;;;;;;8.58;64.59;99005.25;2212072;80;31128;-67
2021/01/21 12:07:35;;;;;;;12.70;7.90;;;;;;;8.57;64.72;99004.86;2129023;81;33162;-70
2021/01/21 12:10:37;;;;;;;16.55;8.13;;;;;;;8.59;64.52;99005.63;2116932;82;30241;-68
2021/01/21 12:13:39;;;;;;;16.77;8.43;;;;;;;8.59;64.39;99001.16;2199086;80;27639;-71
2021/01/21 12:16:43;;;;;;;16.25;8.05;;;;;;;8.60;64.44;99004.67;2186192;80;29795;-70
2021/01/21 12:19:48;;;;;;;15.20;9.20;;;;;;;8.63;63.73;98997.81;2142717;82;32072;-66
2021/01/21 12:22:50;;;;;;;20.82;9.83;;;;;;;8.65;64.45;98992.75;2190799;80;33977;-69
2021/01/21 12:25:53;;;;;;;17.27;10.35;;;;;;;8.70;63.99;98987.61;2178790;81;29834;-67
2021/01/21 12:28:56;;;;;;;21.23;11.95;;;;;;;8.73;64.30;98979.41;2180767;80;28130;-65
2021/01/21 12:32:00;;;;;;;22.15;11.95;;;;;;;8.77;64.36;98999.62;2178807;81;29378;-67
2021/01/21 12:35:02;;;;;;;18.17;11.53;;;;;;;8.77;64.41;99003.14;2181383;80;32540;-67
2021/01/21 12:38:04;;;;;;;22.40;12.73;;;;;;;8.79;64.34;99010.58;2217493;80;33115;-69
2021/01/21 12:41:07;;;;;;;21.80;10.58;;;;;;;8.84;64.56;99003.61;2217063;80;28856;-70
2021/01/21 12:44:09;;;;;;;21.12;10.23;;;;;;;8.88;64.40;99004.27;2216602;80;27764;-70
2021/01/21 12:47:10;;;;;;;22.25;10.63;;;;;;;8.90;64.43;99000.56;2211207;80;28905;-67
2021/01/21 12:50:15;;;;;;;17.12;10.10;;;;;;;8.90;63.92;98991.67;2189632;80;31577;-66
2021/01/21 12:53:17;;;;;;;19.48;10.20;;;;;;;8.88;63.72;98988.23;2182510;80;33222;-68
2021/01/21 12:56:19;;;;;;;22.13;10.70;;;;;;;8.84;63.82;98983.58;2182117;80;29777;-68
2021/01/21 12:59:21;;;;;;;19.25;11.43;;;;;;;8.81;63.79;98985.98;2181027;80;27701;-72
2021/01/21 13:02:27;;;;;;;20.32;11.20;;;;;;;8.75;63.81;98990.36;2179262;80;29257;-68
2021/01/21 13:05:29;;;;;;;23.40;13.75;;;;;;;8.73;63.99;98988.75;2203336;80;31208;-68
2021/01/21 13:08:32;;;;;;;22.67;12.30;;;;;;;8.71;63.94;98990.66;2178232;80;33284;-68
2021/01/21 13:11:34;;;;;;;21.55;12.33;;;;;;;8.68;63.97;98982.84;2178272;81;28934;-67
2021/01/21 13:14:36;;;;;;;22.87;12.93;;;;;;;8.64;63.96;98984.85;2179534;80;28057;-67
2021/01/21 13:17:40;;;;;;;26.62;16.80;;;;;;;8.59;63.96;98977.60;2192384;80;29726;-67
2021/01/21 13:20:42;;;;;;;22.67;13.38;;;;;;;8.54;64.08;98977.89;2179495;80;31340;-67
2021/01/21 13:23:45;;;;;;;23.60;12.88;;;;;;;8.47;63.94;98984.06;2178383;80;33120;-62
2021/01/21 13:26:47;;;;;;;23.18;14.65;;;;;;;8.42;64.01;98985.31;2178733;81;28922;-71
2021/01/21 13:29:49;;;;;;;27.98;15.72;;;;;;;8.32;64.12;98984.53;2178647;81;28385;-67
2021/01/21 13:32:52;;;;;;;25.25;15.10;;;;;;;8.26;64.11;98987.59;2178753;81;29780;-67
2021/01/21 13:35:54;;;;;;;26.75;14.93;;;;;;;8.20;64.30;98995.47;2185226;80;32049;-68
2021/01/21 13:38:56;;;;;;;28.12;17.10;;;;;;;8.17;64.41;98993.02;2203603;80;33211;-70
2021/01/21 13:41:59;;;;;;;31.02;17.37;;;;;;;8.14;64.46;99005.66;2212540;80;29052;-66
2021/01/21 13:45:01;;;;;;;31.42;16.40;;;;;;;8.12;64.63;99016.89;2186880;80;27581;-65
2021/01/21 13:48:05;;;;;;;31.77;18.65;;;;;;;8.10;64.73;99022.82;2178834;81;29760;-70
2021/01/21 13:51:09;;;;;;;49.67;27.85;;;;;;;8.08;64.81;99035.39;2197425;80;31179;-69
2021/01/21 13:54:11;;;;;;;68.90;40.85;;;;;;;8.06;64.92;99039.00;2216977;80;34049;-67
2021/01/21 13:57:14;;;;;;;45.67;23.80;;;;;;;8.04;64.91;99034.23;2217170;80;28858;-66
2021/01/21 14:00:18;;;;;;;44.93;23.07;;;;;;;8.00;64.99;99027.84;2217398;80;27599;-73
2021/01/21 14:03:20;;;;;;;40.12;18.85;;;;;;;7.98;65.11;99027.08;2213406;80;28795;-69
2021/01/21 14:06:24;;;;;;;33.20;17.40;;;;;;;7.97;65.18;99021.36;2178460;81;31139;-67
2021/01/21 14:09:26;;;;;;;36.63;17.23;;;;;;;7.95;65.18;99015.25;2178661;80;34032;-68
2021/01/21 14:12:28;;;;;;;48.92;24.15;;;;;;;7.93;65.21;99015.35;2185633;80;30067;-65
2021/01/21 14:15:30;;;;;;;33.88;16.23;;;;;;;7.90;65.32;99014.20;2217313;80;27713;-68
2021/01/21 14:18:32;;;;;;;24.43;14.60;;;;;;;7.87;65.38;99016.55;2216267;80;28824;-68
2021/01/21 14:21:34;;;;;;;31.55;14.60;;;;;;;7.84;65.31;99018.55;2201593;80;31122;-68